| time (UTC) | temp F | wind direction | speed knots | gust knots | rain 1hr in | rain 24hr in | rain mn in | humidity % | barometer mb |
| 20260510073009 | 72 | 150 | 0.9 | 1.7 | 0.00 | 0.26 | 0.00 | 93 | 1011.4 |
| 20260510072508 | 72 | 150 | 0.9 | 0.9 | 0.00 | 0.26 | 0.00 | 93 | 1011.7 |
| 20260510071009 | 72 | 150 | 0.0 | 0.9 | 0.00 | 0.26 | 0.00 | 93 | 1011.7 |
| 20260510070509 | 72 | 150 | 0.0 | 0.9 | 0.00 | 0.26 | 0.00 | 93 | 1011.7 |
| 20260510070009 | 72 | 150 | 0.0 | 0.9 | 0.00 | 0.26 | 0.00 | 93 | 1011.6 |
| 20260510065509 | 72 | 150 | 0.0 | 0.9 | 0.00 | 0.26 | 0.00 | 93 | 1011.6 |
| 20260510065009 | 72 | 150 | 0.0 | 0.0 | 0.00 | 0.26 | 0.00 | 93 | 1011.6 |
| 20260510064508 | 72 | 150 | 0.0 | 0.0 | 0.00 | 0.26 | 0.00 | 93 | 1011.7 |
| 20260510064009 | 71 | 150 | 0.0 | 0.0 | 0.00 | 0.26 | 0.00 | 93 | 1011.7 |
| 20260510063509 | 71 | 150 | 0.0 | 0.9 | 0.00 | 0.26 | 0.00 | 93 | 1011.7 |
| 20260510062509 | 71 | 150 | 0.0 | 0.0 | 0.00 | 0.26 | 0.00 | 92 | 1011.8 |
| 20260510062009 | 71 | 150 | 0.0 | 0.0 | 0.00 | 0.26 | 0.00 | 92 | 1011.8 |
| 20260510061508 | 71 | 150 | 0.0 | 0.0 | 0.00 | 0.26 | 0.00 | 92 | 1011.8 |
| 20260510061009 | 71 | 150 | 0.0 | 0.0 | 0.00 | 0.26 | 0.00 | 92 | 1011.9 |
| 20260510060509 | 71 | 150 | 0.0 | 0.0 | 0.00 | 0.26 | 0.00 | 92 | 1012.1 |
| 20260510060009 | 71 | 150 | 0.0 | 0.0 | 0.00 | 0.26 | 0.00 | 92 | 1012.3 |
| 20260510055508 | 71 | 150 | 0.0 | 0.0 | 0.00 | 0.26 | 0.00 | 92 | 1012.3 |
| 20260510055008 | 71 | 150 | 0.0 | 0.0 | 0.00 | 0.26 | 0.00 | 92 | 1012.3 |
| 20260510054008 | 71 | 150 | 0.0 | 0.0 | 0.00 | 0.26 | 0.00 | 92 | 1012.4 |
| 20260510053509 | 71 | 150 | 0.0 | 0.0 | 0.00 | 0.26 | 0.00 | 92 | 1012.4 |
| 20260510053009 | 71 | 150 | 0.0 | 0.0 | 0.00 | 0.26 | 0.00 | 92 | 1012.4 |
| 20260510052009 | 71 | 150 | 0.0 | 0.0 | 0.00 | 0.26 | 0.00 | 92 | 1012.6 |
| 20260510051009 | 71 | 150 | 0.0 | 0.0 | 0.00 | 0.27 | 0.00 | 92 | 1012.8 |
| 20260510050508 | 71 | 150 | 0.0 | 0.0 | 0.00 | 0.30 | 0.00 | 92 | 1012.7 |
| 20260510050008 | 71 | 150 | 0.0 | 0.0 | 0.00 | 0.34 | 0.00 | 92 | 1012.8 |
| 20260510045509 | 71 | 150 | 0.0 | 0.9 | 0.00 | 0.35 | 0.00 | 92 | 1012.9 |
| 20260510045008 | 71 | 150 | 0.0 | 0.0 | 0.00 | 0.36 | 0.00 | 92 | 1012.9 |
| 20260510044509 | 72 | 150 | 0.0 | 0.0 | 0.00 | 0.37 | 0.00 | 92 | 1012.8 |
| 20260510044009 | 72 | 150 | 0.0 | 0.0 | 0.00 | 0.38 | 0.00 | 92 | 1012.8 |
| 20260510043509 | 72 | 150 | 0.0 | 0.9 | 0.00 | 0.42 | 0.00 | 92 | 1012.8 |
| 20260510043008 | 72 | 150 | 0.0 | 1.7 | 0.00 | 0.50 | 0.00 | 92 | 1012.8 |
| 20260510042509 | 72 | 150 | 0.0 | 0.9 | 0.00 | 0.50 | 0.00 | 92 | 1012.9 |
| 20260510042009 | 72 | 150 | 0.0 | 0.9 | 0.00 | 0.50 | 0.00 | 92 | 1012.9 |
| 20260510041509 | 72 | 150 | 0.0 | 1.7 | 0.00 | 0.50 | 0.00 | 92 | 1012.9 |
| 20260510041009 | 72 | 150 | 0.9 | 1.7 | 0.00 | 0.50 | 0.00 | 92 | 1012.9 |
| 20260510040509 | 72 | 150 | 1.7 | 2.6 | 0.00 | 0.50 | 0.00 | 92 | 1012.9 |
| 20260510040008 | 72 | 150 | 0.0 | 0.9 | 0.00 | 0.50 | 0.00 | 92 | 1012.9 |
| 20260510035508 | 72 | 150 | 0.0 | 2.6 | 0.00 | 0.50 | 0.50 | 92 | 1013.0 |
| 20260510035009 | 72 | 150 | 0.9 | 2.6 | 0.00 | 0.50 | 0.50 | 92 | 1012.9 |
| 20260510034509 | 72 | 150 | 0.0 | 0.0 | 0.00 | 0.50 | 0.50 | 92 | 1013.1 |
| 20260510034008 | 72 | 150 | 0.0 | 0.0 | 0.00 | 0.50 | 0.50 | 92 | 1013.1 |
| 20260510033509 | 72 | 150 | 0.9 | 1.7 | 0.00 | 0.50 | 0.50 | 92 | 1013.1 |
| 20260510033009 | 72 | 150 | 0.9 | 1.7 | 0.00 | 0.51 | 0.50 | 92 | 1013.1 |
| 20260510032509 | 72 | 150 | 0.9 | 2.6 | 0.00 | 0.51 | 0.50 | 92 | 1013.1 |
| 20260510032008 | 72 | 150 | 0.9 | 2.6 | 0.00 | 0.52 | 0.50 | 92 | 1012.9 |
| 20260510031508 | 72 | 150 | 1.7 | 2.6 | 0.00 | 0.54 | 0.50 | 92 | 1012.9 |
| 20260510031008 | 72 | 150 | 1.7 | 2.6 | 0.00 | 0.56 | 0.50 | 92 | 1012.8 |
| 20260510030509 | 72 | 150 | 1.7 | 2.6 | 0.00 | 0.58 | 0.50 | 92 | 1012.7 |
| 20260510030008 | 72 | 150 | 0.9 | 2.6 | 0.00 | 0.58 | 0.50 | 92 | 1012.8 |
| 20260510025509 | 72 | 150 | 1.7 | 2.6 | 0.00 | 0.58 | 0.50 | 92 | 1012.6 |
| 20260510025008 | 72 | 88 | 0.0 | 0.0 | 0.00 | 0.58 | 0.50 | 91 | 1012.3 |
| 20260510024509 | 72 | 88 | 0.0 | 0.0 | 0.00 | 0.58 | 0.50 | 92 | 1012.3 |
| 20260510024008 | 72 | 88 | 0.0 | 0.9 | 0.00 | 0.58 | 0.50 | 92 | 1012.3 |
| 20260510023509 | 72 | 88 | 0.0 | 0.9 | 0.00 | 0.59 | 0.50 | 92 | 1012.4 |
| 20260510023008 | 72 | 88 | 0.0 | 0.9 | 0.00 | 0.59 | 0.50 | 92 | 1012.3 |
| 20260510022509 | 72 | 88 | 0.0 | 0.9 | 0.00 | 0.59 | 0.50 | 92 | 1012.4 |
| 20260510021509 | 73 | 88 | 0.0 | 0.9 | 0.00 | 0.60 | 0.50 | 91 | 1012.1 |
| 20260510021008 | 73 | 88 | 0.9 | 2.6 | 0.00 | 0.60 | 0.50 | 92 | 1011.9 |
| 20260510020508 | 73 | 88 | 1.7 | 2.6 | 0.00 | 0.60 | 0.50 | 92 | 1011.9 |
| 20260510020009 | 73 | 88 | 0.9 | 1.7 | 0.00 | 0.60 | 0.50 | 91 | 1011.8 |
| 20260510015508 | 73 | 88 | 0.0 | 0.9 | 0.00 | 0.60 | 0.50 | 91 | 1012.0 |
| 20260510015009 | 73 | 88 | 0.0 | 0.0 | 0.00 | 0.60 | 0.50 | 91 | 1011.9 |
| 20260510014009 | 73 | 88 | 0.0 | 0.0 | 0.00 | 0.60 | 0.50 | 91 | 1011.8 |
| 20260510013509 | 73 | 88 | 0.0 | 0.0 | 0.00 | 0.60 | 0.50 | 91 | 1011.7 |
| 20260510013009 | 73 | 88 | 0.0 | 0.9 | 0.00 | 0.60 | 0.50 | 91 | 1011.6 |
| 20260510012509 | 73 | 88 | 0.0 | 0.0 | 0.00 | 0.60 | 0.50 | 92 | 1011.4 |
| 20260510012009 | 73 | 88 | 0.0 | 0.0 | 0.00 | 0.60 | 0.50 | 91 | 1011.5 |
| 20260510011508 | 73 | 88 | 0.0 | 0.9 | 0.00 | 0.60 | 0.50 | 91 | 1011.5 |
| 20260510011008 | 73 | 88 | 0.9 | 2.6 | 0.00 | 0.60 | 0.50 | 91 | 1011.4 |
| 20260510010508 | 73 | 88 | 0.0 | 0.0 | 0.01 | 0.60 | 0.50 | 91 | 1011.3 |
| 20260510010009 | 73 | 88 | 0.0 | 0.0 | 0.01 | 0.60 | 0.50 | 91 | 1011.3 |
| 20260510005009 | 73 | 88 | 0.0 | 0.9 | 0.01 | 0.60 | 0.50 | 91 | 1011.5 |
| 20260510004509 | 73 | 88 | 0.9 | 1.7 | 0.01 | 0.60 | 0.50 | 91 | 1011.4 |
| 20260510004009 | 73 | 88 | 0.9 | 1.7 | 0.01 | 0.60 | 0.50 | 91 | 1011.4 |
| 20260510003508 | 73 | 88 | 0.0 | 0.0 | 0.01 | 0.60 | 0.50 | 91 | 1011.3 |
| 20260510002508 | 73 | 88 | 0.0 | 0.0 | 0.01 | 0.60 | 0.50 | 91 | 1011.7 |
| 20260510002008 | 73 | 88 | 0.0 | 0.9 | 0.01 | 0.60 | 0.50 | 91 | 1011.8 |
| 20260510001508 | 73 | 90 | 0.0 | 0.9 | 0.01 | 0.60 | 0.50 | 91 | 1011.8 |
| 20260510000509 | 73 | 90 | 0.9 | 1.7 | 0.00 | 0.59 | 0.49 | 91 | 1011.8 |
| 20260510000008 | 73 | 90 | 0.0 | 1.7 | 0.00 | 0.59 | 0.49 | 91 | 1011.8 |
| 20260509235009 | 74 | 90 | 0.0 | 1.7 | 0.00 | 0.59 | 0.49 | 91 | 1011.8 |
| 20260509234508 | 74 | 78 | 0.9 | 1.7 | 0.00 | 0.59 | 0.49 | 91 | 1011.7 |
| 20260509234009 | 74 | 78 | 0.9 | 1.7 | 0.00 | 0.59 | 0.49 | 91 | 1011.7 |
| 20260509233509 | 74 | 78 | 0.0 | 0.9 | 0.00 | 0.59 | 0.49 | 91 | 1011.7 |
| 20260509233008 | 73 | 78 | 0.9 | 1.7 | 0.00 | 0.59 | 0.49 | 91 | 1011.6 |
| 20260509232509 | 74 | 78 | 0.0 | 0.0 | 0.00 | 0.59 | 0.49 | 91 | 1011.5 |
| 20260509231509 | 74 | 78 | 0.0 | 0.9 | 0.00 | 0.59 | 0.49 | 91 | 1011.5 |
| 20260509231009 | 74 | 78 | 0.0 | 0.0 | 0.00 | 0.59 | 0.49 | 91 | 1011.5 |
| 20260509230509 | 73 | 78 | 0.0 | 0.0 | 0.00 | 0.59 | 0.49 | 91 | 1011.6 |
| 20260509225509 | 73 | 78 | 0.0 | 0.0 | 0.00 | 0.59 | 0.49 | 91 | 1011.5 |
| 20260509225009 | 73 | 78 | 0.0 | 0.0 | 0.00 | 0.59 | 0.49 | 91 | 1011.5 |
| 20260509224009 | 73 | 78 | 0.0 | 0.9 | 0.00 | 0.59 | 0.49 | 91 | 1011.5 |
| 20260509223008 | 73 | 78 | 0.0 | 0.9 | 0.00 | 0.59 | 0.49 | 91 | 1011.5 |
| 20260509222509 | 73 | 78 | 0.0 | 0.9 | 0.00 | 0.59 | 0.49 | 91 | 1011.3 |
| 20260509221508 | 73 | 44 | 0.9 | 2.6 | 0.00 | 0.59 | 0.49 | 91 | 1011.4 |
| 20260509221009 | 73 | 44 | 0.0 | 2.6 | 0.00 | 0.59 | 0.49 | 90 | 1011.5 |
| 20260509220509 | 73 | 44 | 1.7 | 2.6 | 0.00 | 0.59 | 0.49 | 90 | 1011.4 |
| 20260509220008 | 73 | 44 | 1.7 | 2.6 | 0.00 | 0.59 | 0.49 | 90 | 1011.2 |
| 20260509215009 | 73 | 56 | 1.7 | 2.6 | 0.00 | 0.59 | 0.49 | 90 | 1011.2 |
| 20260509214509 | 73 | 56 | 0.0 | 0.9 | 0.00 | 0.59 | 0.49 | 91 | 1011.4 |
| 20260509214009 | 73 | 56 | 1.7 | 2.6 | 0.00 | 0.59 | 0.49 | 90 | 1011.3 |
| 20260509213509 | 73 | 55 | 0.9 | 4.3 | 0.00 | 0.59 | 0.49 | 90 | 1011.3 |
| 20260509213008 | 73 | 15 | 1.7 | 2.6 | 0.01 | 0.59 | 0.49 | 90 | 1011.3 |
| 20260509212509 | 73 | 15 | 1.7 | 4.3 | 0.03 | 0.59 | 0.49 | 90 | 1011.2 |
| 20260509212009 | 73 | 9 | 2.6 | 6.1 | 0.11 | 0.59 | 0.49 | 90 | 1011.2 |
| 20260509211008 | 73 | 9 | 1.7 | 2.6 | 0.12 | 0.59 | 0.49 | 90 | 1011.3 |
| 20260509210509 | 73 | 0 | 0.9 | 2.6 | 0.12 | 0.59 | 0.49 | 90 | 1011.3 |
| 20260509205509 | 73 | 356 | 4.3 | 8.7 | 0.13 | 0.59 | 0.49 | 89 | 1011.4 |
| 20260509204509 | 73 | 10 | 5.2 | 8.7 | 0.16 | 0.59 | 0.49 | 88 | 1011.6 |
| 20260509204008 | 73 | 9 | 2.6 | 6.1 | 0.17 | 0.59 | 0.49 | 88 | 1011.7 |
| 20260509203509 | 73 | 213 | 0.0 | 0.9 | 0.18 | 0.59 | 0.49 | 88 | 1011.7 |
| 20260509203008 | 73 | 213 | 0.9 | 2.6 | 0.18 | 0.58 | 0.48 | 88 | 1011.7 |
| 20260509202509 | 74 | 235 | 1.7 | 5.2 | 0.17 | 0.56 | 0.46 | 87 | 1011.3 |
| 20260509202009 | 74 | 16 | 6.1 | 11.3 | 0.10 | 0.48 | 0.38 | 87 | 1011.3 |
| 20260509201009 | 76 | 327 | 2.6 | 7.0 | 0.11 | 0.47 | 0.37 | 88 | 1011.2 |
| 20260509200509 | 76 | 98 | 0.0 | 0.0 | 0.12 | 0.47 | 0.37 | 87 | 1011.0 |
| 20260509200008 | 76 | 98 | 0.0 | 0.0 | 0.12 | 0.47 | 0.37 | 87 | 1011.1 |
| 20260509195508 | 77 | 98 | 0.0 | 0.0 | 0.11 | 0.46 | 0.36 | 87 | 1011.2 |
| 20260509195008 | 77 | 98 | 0.0 | 0.0 | 0.10 | 0.44 | 0.34 | 86 | 1011.4 |
| 20260509194509 | 77 | 98 | 0.0 | 1.7 | 0.09 | 0.43 | 0.33 | 86 | 1011.3 |
| 20260509194008 | 77 | 98 | 0.0 | 0.9 | 0.08 | 0.42 | 0.32 | 85 | 1011.2 |
| 20260509193509 | 78 | 99 | 0.0 | 0.0 | 0.07 | 0.41 | 0.31 | 85 | 1011.2 |
| 20260509193008 | 78 | 110 | 0.0 | 0.0 | 0.06 | 0.40 | 0.30 | 84 | 1010.9 |
| 20260509192508 | 78 | 110 | 0.0 | 0.0 | 0.05 | 0.39 | 0.29 | 83 | 1011.1 |
| 20260509192009 | 78 | 110 | 0.0 | 0.0 | 0.04 | 0.38 | 0.28 | 83 | 1011.2 |
| 20260509191508 | 79 | 110 | 0.0 | 0.0 | 0.02 | 0.36 | 0.26 | 82 | 1011.2 |
| 20260509191009 | 79 | 110 | 0.0 | 0.9 | 0.02 | 0.36 | 0.26 | 81 | 1011.3 |
| 20260509190508 | 80 | 110 | 0.0 | 0.9 | 0.01 | 0.35 | 0.25 | 80 | 1011.1 |
| 20260509184508 | 80 | 217 | 0.0 | 2.6 | 0.00 | 0.34 | 0.24 | 78 | 1011.1 |
| 20260509184008 | 81 | 217 | 2.6 | 5.2 | 0.00 | 0.34 | 0.24 | 78 | 1011.1 |
| 20260509182509 | 81 | 236 | 0.0 | 0.0 | 0.00 | 0.34 | 0.24 | 77 | 1011.1 |
| 20260509182008 | 82 | 321 | 0.9 | 4.3 | 0.00 | 0.34 | 0.24 | 77 | 1011.1 |
| 20260509181508 | 81 | 221 | 2.6 | 6.1 | 0.00 | 0.34 | 0.24 | 77 | 1011.2 |
| 20260509181008 | 82 | 182 | 1.7 | 8.7 | 0.00 | 0.34 | 0.24 | 77 | 1011.2 |
| 20260509180509 | 81 | 172 | 2.6 | 7.0 | 0.00 | 0.34 | 0.24 | 78 | 1011.2 |
| 20260509180009 | 81 | 226 | 2.6 | 7.0 | 0.00 | 0.34 | 0.24 | 78 | 1011.3 |
| 20260509175508 | 81 | 229 | 2.6 | 5.2 | 0.00 | 0.34 | 0.24 | 77 | 1011.3 |
| 20260509175008 | 81 | 172 | 3.5 | 6.1 | 0.00 | 0.34 | 0.24 | 79 | 1011.5 |
| 20260509174508 | 80 | 200 | 0.9 | 2.6 | 0.00 | 0.34 | 0.24 | 80 | 1011.5 |
| 20260509173008 | 79 | 233 | 2.6 | 2.6 | 0.00 | 0.34 | 0.24 | 80 | 1011.6 |
| 20260509172009 | 79 | 240 | 1.7 | 2.6 | 0.00 | 0.34 | 0.24 | 79 | 1011.7 |
| 20260509171509 | 79 | 235 | 1.7 | 4.3 | 0.00 | 0.34 | 0.24 | 79 | 1011.7 |
| 20260509171009 | 80 | 148 | 0.0 | 1.7 | 0.00 | 0.34 | 0.24 | 79 | 1011.8 |
| 20260509170509 | 80 | 148 | 1.7 | 2.6 | 0.00 | 0.34 | 0.24 | 79 | 1011.8 |
| 20260509170009 | 79 | 147 | 0.9 | 2.6 | 0.00 | 0.34 | 0.24 | 79 | 1011.8 |
| 20260509165509 | 79 | 147 | 0.9 | 4.3 | 0.00 | 0.34 | 0.24 | 80 | 1011.8 |
| 20260509165009 | 79 | 178 | 0.9 | 5.2 | 0.00 | 0.34 | 0.24 | 80 | 1011.9 |
| 20260509164508 | 79 | 223 | 0.9 | 1.7 | 0.00 | 0.34 | 0.24 | 79 | 1011.9 |
| 20260509164008 | 79 | 212 | 2.6 | 4.3 | 0.00 | 0.34 | 0.24 | 79 | 1012.0 |
| 20260509163509 | 79 | 69 | 0.9 | 2.6 | 0.00 | 0.34 | 0.24 | 80 | 1012.0 |
| 20260509163008 | 79 | 147 | 0.9 | 4.3 | 0.00 | 0.34 | 0.24 | 80 | 1012.0 |
| 20260509162509 | 78 | 178 | 2.6 | 5.2 | 0.00 | 0.34 | 0.24 | 81 | 1011.9 |
| 20260509162008 | 78 | 165 | 2.6 | 7.0 | 0.00 | 0.34 | 0.24 | 81 | 1012.0 |
| 20260509161509 | 78 | 175 | 2.6 | 4.3 | 0.00 | 0.34 | 0.24 | 81 | 1012.1 |
| 20260509161008 | 77 | 181 | 0.9 | 2.6 | 0.00 | 0.34 | 0.24 | 81 | 1011.9 |
| 20260509160509 | 77 | 175 | 2.6 | 5.2 | 0.00 | 0.34 | 0.24 | 82 | 1011.7 |
| 20260509160008 | 77 | 132 | 0.9 | 1.7 | 0.00 | 0.34 | 0.24 | 81 | 1011.6 |
| 20260509155508 | 77 | 132 | 0.9 | 1.7 | 0.00 | 0.34 | 0.24 | 82 | 1011.6 |
| 20260509154008 | 76 | 132 | 0.9 | 1.7 | 0.00 | 0.34 | 0.24 | 82 | 1011.7 |
| 20260509153508 | 76 | 132 | 0.9 | 1.7 | 0.00 | 0.34 | 0.24 | 82 | 1012.0 |
| 20260509153009 | 76 | 132 | 0.0 | 2.6 | 0.00 | 0.34 | 0.24 | 82 | 1012.2 |
| 20260509152508 | 76 | 132 | 1.7 | 2.6 | 0.00 | 0.34 | 0.24 | 82 | 1012.3 |
| 20260509152008 | 76 | 132 | 0.9 | 2.6 | 0.00 | 0.34 | 0.24 | 82 | 1012.4 |
| 20260509151509 | 76 | 132 | 1.7 | 2.6 | 0.00 | 0.34 | 0.24 | 83 | 1012.7 |
| 20260509151009 | 76 | 138 | 1.7 | 2.6 | 0.00 | 0.34 | 0.24 | 83 | 1012.6 |
| 20260509150508 | 76 | 138 | 0.9 | 2.6 | 0.00 | 0.34 | 0.24 | 83 | 1012.6 |
| 20260509150008 | 76 | 138 | 1.7 | 2.6 | 0.00 | 0.34 | 0.24 | 84 | 1012.7 |
| 20260509145509 | 75 | 138 | 1.7 | 2.6 | 0.00 | 0.34 | 0.24 | 84 | 1012.7 |
| 20260509145009 | 75 | 138 | 0.9 | 1.7 | 0.00 | 0.34 | 0.24 | 85 | 1012.6 |
| 20260509143009 | 74 | 138 | 0.9 | 2.6 | 0.00 | 0.34 | 0.24 | 86 | 1012.4 |
| 20260509142508 | 74 | 138 | 0.0 | 1.7 | 0.00 | 0.34 | 0.24 | 86 | 1012.4 |
| 20260509142008 | 74 | 138 | 0.0 | 2.6 | 0.00 | 0.34 | 0.24 | 87 | 1012.4 |
| 20260509141509 | 74 | 138 | 0.9 | 2.6 | 0.00 | 0.34 | 0.24 | 88 | 1012.3 |
| 20260509141008 | 74 | 138 | 1.7 | 2.6 | 0.00 | 0.34 | 0.24 | 88 | 1012.3 |
| 20260509140508 | 73 | 31 | 0.9 | 1.7 | 0.00 | 0.34 | 0.24 | 89 | 1012.3 |
| 20260509140009 | 73 | 31 | 1.7 | 2.6 | 0.00 | 0.34 | 0.24 | 90 | 1012.2 |
| 20260509135508 | 73 | 19 | 1.7 | 2.6 | 0.00 | 0.34 | 0.24 | 90 | 1012.3 |
| 20260509134509 | 72 | 355 | 0.9 | 2.6 | 0.00 | 0.34 | 0.24 | 90 | 1012.3 |
| 20260509133508 | 72 | 355 | 0.9 | 2.6 | 0.00 | 0.34 | 0.24 | 91 | 1012.2 |
| 20260509133009 | 71 | 355 | 0.9 | 1.7 | 0.00 | 0.34 | 0.24 | 91 | 1012.0 |
| 20260509132508 | 71 | 355 | 0.9 | 1.7 | 0.00 | 0.34 | 0.24 | 91 | 1011.8 |
| 20260509132009 | 71 | 355 | 0.9 | 1.7 | 0.00 | 0.34 | 0.24 | 91 | 1011.8 |
| 20260509131509 | 71 | 355 | 1.7 | 2.6 | 0.00 | 0.34 | 0.24 | 91 | 1011.8 |
| 20260509131008 | 71 | 355 | 0.9 | 1.7 | 0.00 | 0.34 | 0.24 | 91 | 1011.8 |
| 20260509130508 | 71 | 355 | 1.7 | 2.6 | 0.00 | 0.34 | 0.24 | 92 | 1011.9 |
| 20260509130009 | 71 | 355 | 0.9 | 1.7 | 0.00 | 0.34 | 0.24 | 92 | 1011.7 |
| 20260509125508 | 71 | 355 | 0.9 | 1.7 | 0.00 | 0.34 | 0.24 | 92 | 1011.6 |
| 20260509125008 | 71 | 355 | 0.0 | 0.9 | 0.00 | 0.34 | 0.24 | 92 | 1011.5 |
| 20260509124508 | 71 | 355 | 0.9 | 2.6 | 0.00 | 0.34 | 0.24 | 92 | 1011.4 |
| 20260509124009 | 71 | 355 | 0.9 | 2.6 | 0.00 | 0.34 | 0.24 | 92 | 1011.4 |
| 20260509123509 | 71 | 355 | 0.9 | 2.6 | 0.00 | 0.34 | 0.24 | 92 | 1011.5 |
| 20260509123008 | 70 | 355 | 0.9 | 2.6 | 0.00 | 0.34 | 0.24 | 92 | 1011.6 |
| 20260509122509 | 70 | 355 | 0.9 | 2.6 | 0.00 | 0.34 | 0.24 | 92 | 1011.6 |
| 20260509121508 | 69 | 355 | 0.9 | 2.6 | 0.00 | 0.34 | 0.24 | 92 | 1011.6 |
| 20260509121009 | 69 | 355 | 0.0 | 0.9 | 0.00 | 0.34 | 0.24 | 92 | 1011.6 |
| 20260509120508 | 69 | 355 | 0.0 | 0.9 | 0.00 | 0.34 | 0.24 | 92 | 1011.6 |
| 20260509120008 | 69 | 355 | 0.9 | 1.7 | 0.00 | 0.34 | 0.24 | 92 | 1011.7 |
| 20260509115509 | 69 | 351 | 0.0 | 0.9 | 0.00 | 0.34 | 0.24 | 92 | 1011.6 |
| 20260509115008 | 69 | 351 | 0.0 | 0.9 | 0.00 | 0.34 | 0.24 | 92 | 1011.4 |
| 20260509114508 | 69 | 351 | 1.7 | 2.6 | 0.00 | 0.34 | 0.24 | 92 | 1011.4 |
| 20260509114008 | 69 | 351 | 1.7 | 2.6 | 0.00 | 0.34 | 0.24 | 92 | 1011.3 |
| 20260509113509 | 69 | 351 | 0.9 | 2.6 | 0.00 | 0.34 | 0.24 | 92 | 1011.3 |
| 20260509113008 | 68 | 351 | 0.9 | 2.6 | 0.00 | 0.34 | 0.24 | 92 | 1011.0 |
| 20260509111509 | 68 | 351 | 0.0 | 1.7 | 0.00 | 0.34 | 0.24 | 91 | 1010.9 |
| 20260509111008 | 68 | 351 | 0.9 | 2.6 | 0.00 | 0.34 | 0.24 | 92 | 1010.8 |
| 20260509110508 | 68 | 36 | 0.9 | 1.7 | 0.00 | 0.34 | 0.24 | 91 | 1010.6 |
| 20260509105508 | 68 | 64 | 0.9 | 2.6 | 0.00 | 0.34 | 0.24 | 92 | 1010.1 |
| 20260509105008 | 68 | 163 | 0.9 | 2.6 | 0.00 | 0.34 | 0.24 | 92 | 1010.1 |
| 20260509104509 | 68 | 163 | 0.9 | 1.7 | 0.00 | 0.34 | 0.24 | 92 | 1009.9 |
| 20260509104008 | 68 | 163 | 0.0 | 0.9 | 0.00 | 0.34 | 0.24 | 91 | 1009.7 |
| 20260509103508 | 68 | 163 | 0.0 | 0.9 | 0.00 | 0.34 | 0.24 | 91 | 1009.8 |
| 20260509103008 | 68 | 163 | 0.0 | 0.9 | 0.00 | 0.34 | 0.24 | 92 | 1009.9 |
| 20260509102509 | 68 | 163 | 0.0 | 0.9 | 0.00 | 0.34 | 0.24 | 92 | 1009.9 |
| 20260509102008 | 68 | 163 | 0.0 | 0.9 | 0.00 | 0.34 | 0.24 | 92 | 1009.7 |
| 20260509101508 | 68 | 163 | 1.7 | 5.2 | 0.00 | 0.34 | 0.24 | 92 | 1009.3 |
| 20260509101009 | 68 | 182 | 1.7 | 6.1 | 0.00 | 0.34 | 0.24 | 92 | 1009.3 |
| 20260509100509 | 68 | 168 | 3.5 | 6.1 | 0.00 | 0.34 | 0.24 | 92 | 1009.4 |
| 20260509100008 | 68 | 167 | 1.7 | 4.3 | 0.00 | 0.34 | 0.24 | 92 | 1009.5 |
| 20260509095509 | 69 | 241 | 0.0 | 1.7 | 0.00 | 0.34 | 0.24 | 92 | 1009.6 |
| 20260509095008 | 69 | 241 | 0.9 | 1.7 | 0.00 | 0.34 | 0.24 | 92 | 1009.6 |
| 20260509094508 | 69 | 234 | 1.7 | 4.3 | 0.00 | 0.34 | 0.24 | 92 | 1009.4 |
| 20260509094009 | 68 | 178 | 4.3 | 11.3 | 0.00 | 0.34 | 0.24 | 92 | 1009.2 |
| 20260509093509 | 68 | 166 | 7.8 | 13.0 | 0.00 | 0.34 | 0.24 | 92 | 1009.2 |
| 20260509093008 | 68 | 164 | 6.1 | 12.2 | 0.00 | 0.34 | 0.24 | 92 | 1009.4 |
| 20260509092508 | 68 | 157 | 5.2 | 10.4 | 0.00 | 0.34 | 0.24 | 92 | 1009.6 |
| 20260509092008 | 68 | 157 | 5.2 | 10.4 | 0.00 | 0.34 | 0.24 | 92 | 1009.8 |
| 20260509091509 | 68 | 158 | 4.3 | 7.0 | 0.00 | 0.34 | 0.24 | 92 | 1010.4 |
| 20260509091008 | 68 | 169 | 0.9 | 1.7 | 0.00 | 0.34 | 0.24 | 92 | 1010.6 |
| 20260509090009 | 69 | 169 | 0.0 | 0.9 | 0.00 | 0.34 | 0.24 | 92 | 1010.7 |
| 20260509085508 | 69 | 169 | 0.9 | 1.7 | 0.00 | 0.34 | 0.24 | 92 | 1010.7 |
| 20260509085008 | 69 | 169 | 0.9 | 1.7 | 0.00 | 0.34 | 0.24 | 92 | 1010.6 |
| 20260509084508 | 69 | 169 | 0.0 | 2.6 | 0.00 | 0.34 | 0.24 | 92 | 1010.6 |
| 20260509084008 | 69 | 169 | 0.9 | 2.6 | 0.00 | 0.34 | 0.24 | 92 | 1010.5 |
| 20260509083509 | 69 | 169 | 0.9 | 2.6 | 0.00 | 0.34 | 0.24 | 92 | 1010.4 |
| 20260509082508 | 69 | 169 | 2.6 | 5.2 | 0.00 | 0.34 | 0.24 | 92 | 1010.4 |
| 20260509082008 | 69 | 167 | 2.6 | 5.2 | 0.00 | 0.34 | 0.24 | 92 | 1010.5 |
| 20260509081508 | 69 | 168 | 4.3 | 7.8 | 0.00 | 0.34 | 0.24 | 92 | 1010.3 |
| 20260509081009 | 69 | 169 | 3.5 | 5.2 | 0.00 | 0.34 | 0.24 | 92 | 1010.4 |
| 20260509075508 | 69 | 160 | 2.6 | 5.2 | 0.00 | 0.34 | 0.24 | 91 | 1010.4 |
| 20260509075009 | 69 | 153 | 2.6 | 6.1 | 0.00 | 0.34 | 0.24 | 91 | 1010.6 |
| 20260509074009 | 69 | 165 | 1.7 | 4.3 | 0.00 | 0.34 | 0.24 | 91 | 1010.7 |
| 20260509073508 | 69 | 165 | 1.7 | 2.6 | 0.00 | 0.34 | 0.24 | 91 | 1010.8 |